Buoy 51627

sailwx.info

Track history (hours):
 
Tides and Currents Weather Stations Pressure Air Temp Water Temp Dewpoint Dewpoint Depression Visibility Wind Speed Wind Dir Waves Ship Positions

Drifting buoy 51627

Last reported at 2015-Aug-29 17:00 UTC. Time now 2015-Aug-29 18:58 UTC.
Position N 09°30' W 156°59'.

Water temperature 29.7 ° C

Date/timePositionNaut miles runAvg speedWind from/ knotsBaromVisibWave heightAir tempDewpointWater temp
2015-Aug-29 17:00N 09°30' W 156°59'1 0.7 29.7
2015-Aug-29 16:00N 09°30' W 156°59'1 0.4 29.6
2015-Aug-29 13:00N 09°29' W 156°58'4 0.5 29.7
2015-Aug-29 06:00N 09°27' W 156°55'1 0.4 29.8
2015-Aug-29 04:00N 09°26' W 156°54'3 0.3 30.0
2015-Aug-28 20:00N 09°26' W 156°52'0 0.1 29.6
2015-Aug-28 16:00N 09°26' W 156°51'1 0.3 29.5
2015-Aug-28 13:00N 09°27' W 156°51'0 0.0 29.6
2015-Aug-28 12:00N 09°27' W 156°51'1 0.2 29.6
2015-Aug-28 09:00N 09°27' W 156°51'0 0.4 29.6
2015-Aug-28 08:00N 09°27' W 156°51'1 0.3 29.6
2015-Aug-28 05:00N 09°26' W 156°52'1 0.7 29.7
2015-Aug-28 04:00N 09°25' W 156°52'1 0.7 29.8
2015-Aug-28 03:00N 09°25' W 156°52'2 1.6 29.9
2015-Aug-28 02:00N 09°24' W 156°54'1 0.3 30.0
2015-Aug-28 00:00N 09°24' W 156°53'1 0.5 30.2
2015-Aug-27 23:00N 09°24' W 156°54'3 0.3 30.2
2015-Aug-27 15:00N 09°22' W 156°52'1 0.8 29.4
2015-Aug-27 14:00N 09°21' W 156°52'3 0.3 29.4
2015-Aug-27 04:00N 09°20' W 156°49'0 0.4 30.5
2015-Aug-27 03:00N 09°20' W 156°49'5 0.6 30.3
2015-Aug-26 19:00N 09°16' W 156°46'9 0.9 29.4
2015-Aug-26 08:00N 09°11' W 156°37'2 1.8 29.6
2015-Aug-26 07:00N 09°11' W 156°36'4 1.1 29.6
2015-Aug-26 03:00N 09°11' W 156°31'0 0.0 29.8
2015-Aug-26 01:00N 09°11' W 156°31'3 3.0 29.9
2015-Aug-26 00:00N 09°11' W 156°28'1 0.2 29.7
2015-Aug-25 20:00N 09°11' W 156°28'4 1.0 29.5
2015-Aug-25 16:00N 09°11' W 156°24'3 0.7 29.3
2015-Aug-25 12:00N 09°12' W 156°21'0 0.0 29.4
2015-Aug-25 11:00N 09°12' W 156°21'3 0.6 29.4
2015-Aug-25 05:00N 09°14' W 156°18'0 0.1 29.5
2015-Aug-25 03:00N 09°14' W 156°18'1 0.9 29.6
2015-Aug-25 02:00N 09°15' W 156°18'1 0.5 29.7
2015-Aug-25 01:00N 09°15' W 156°17'3 0.2 29.7
2015-Aug-24 14:00N 09°16' W 156°15'1 0.4 29.4
2015-Aug-24 12:00N 09°16' W 156°16'1 0.1 29.3
2015-Aug-24 04:00N 09°17' W 156°16'6 0.7 29.7
2015-Aug-23 19:00N 09°11' W 156°17'0 0.2 29.0
2015-Aug-23 17:00N 09°11' W 156°16'1 0.5 29.0
2015-Aug-23 15:00N 09°10' W 156°17'0 0.0 -0.0
2015-Aug-23 14:00N 09°10' W 156°17'4 0.7 29.0
2015-Aug-23 08:00N 09°07' W 156°19'2 0.8 29.5
2015-Aug-23 06:00N 09°05' W 156°19'1 0.2 29.5
2015-Aug-23 01:00N 09°04' W 156°19'5 0.6 29.8
2015-Aug-22 16:00N 08°60' W 156°22'0 0.1 29.4
2015-Aug-22 15:00N 08°60' W 156°22'6 0.6 29.5
2015-Aug-22 05:00N 08°55' W 156°26'1 1.1 29.7
2015-Aug-22 04:00N 08°54' W 156°27'2 2.1 29.9
2015-Aug-22 03:00N 08°52' W 156°28'1 0.3 30.1
2015-Aug-22 00:00N 08°51' W 156°28'1 1.0 30.3
2015-Aug-21 23:00N 08°50' W 156°28'1 0.2 30.3
2015-Aug-21 20:00N 08°50' W 156°28'0 0.4 29.8
2015-Aug-21 19:00N 08°50' W 156°28'0 0.0 29.5
2015-Aug-21 18:00N 08°50' W 156°28'1 0.5 29.3
2015-Aug-21 16:00N 08°49' W 156°27'0 0.0 29.3
2015-Aug-21 15:00N 08°49' W 156°27'1 0.5 29.4
2015-Aug-21 14:00N 08°49' W 156°28'1 0.2 29.4
2015-Aug-21 09:00N 08°50' W 156°27'0 0.4 29.4
2015-Aug-21 08:00N 08°50' W 156°27'1 0.3 29.4
2015-Aug-21 04:00N 08°50' W 156°28'3 0.7 29.5
2015-Aug-21 00:00N 08°51' W 156°31'0 0.0 29.6
2015-Aug-20 23:00N 08°51' W 156°31'2 0.8 29.7
2015-Aug-20 21:00N 08°52' W 156°32'2 0.5 29.5
2015-Aug-20 17:00N 08°52' W 156°34'19 0.8 29.3
2015-Aug-19 19:00N 08°49' W 156°53'   29.3
Track history (hours):
 
Tides and Currents Weather Stations Pressure Air Temp Water Temp Dewpoint Dewpoint Depression Visibility Wind Speed Wind Dir Waves Ship Positions

Drifting buoy 51627

Last reported at 2015-Aug-29 17:00 UTC. Time now 2015-Aug-29 18:58 UTC.
Position N 09°30' W 156°59'.

Water temperature 29.7 ° C

Date/timePositionNaut miles runAvg speedWind from/ knotsBaromVisibWave heightAir tempDewpointWater temp
2015-Aug-29 17:00N 09°30' W 156°59'1 0.7 29.7
2015-Aug-29 16:00N 09°30' W 156°59'1 0.4 29.6
2015-Aug-29 13:00N 09°29' W 156°58'4 0.5 29.7
2015-Aug-29 06:00N 09°27' W 156°55'1 0.4 29.8
2015-Aug-29 04:00N 09°26' W 156°54'3 0.3 30.0
2015-Aug-28 20:00N 09°26' W 156°52'0 0.1 29.6
2015-Aug-28 16:00N 09°26' W 156°51'1 0.3 29.5
2015-Aug-28 13:00N 09°27' W 156°51'0 0.0 29.6
2015-Aug-28 12:00N 09°27' W 156°51'1 0.2 29.6
2015-Aug-28 09:00N 09°27' W 156°51'0 0.4 29.6
2015-Aug-28 08:00N 09°27' W 156°51'1 0.3 29.6
2015-Aug-28 05:00N 09°26' W 156°52'1 0.7 29.7
2015-Aug-28 04:00N 09°25' W 156°52'1 0.7 29.8
2015-Aug-28 03:00N 09°25' W 156°52'2 1.6 29.9
2015-Aug-28 02:00N 09°24' W 156°54'1 0.3 30.0
2015-Aug-28 00:00N 09°24' W 156°53'1 0.5 30.2
2015-Aug-27 23:00N 09°24' W 156°54'3 0.3 30.2
2015-Aug-27 15:00N 09°22' W 156°52'1 0.8 29.4
2015-Aug-27 14:00N 09°21' W 156°52'3 0.3 29.4
2015-Aug-27 04:00N 09°20' W 156°49'0 0.4 30.5
2015-Aug-27 03:00N 09°20' W 156°49'5 0.6 30.3
2015-Aug-26 19:00N 09°16' W 156°46'9 0.9 29.4
2015-Aug-26 08:00N 09°11' W 156°37'2 1.8 29.6
2015-Aug-26 07:00N 09°11' W 156°36'4 1.1 29.6
2015-Aug-26 03:00N 09°11' W 156°31'0 0.0 29.8
2015-Aug-26 01:00N 09°11' W 156°31'3 3.0 29.9
2015-Aug-26 00:00N 09°11' W 156°28'1 0.2 29.7
2015-Aug-25 20:00N 09°11' W 156°28'4 1.0 29.5
2015-Aug-25 16:00N 09°11' W 156°24'3 0.7 29.3
2015-Aug-25 12:00N 09°12' W 156°21'0 0.0 29.4
2015-Aug-25 11:00N 09°12' W 156°21'3 0.6 29.4
2015-Aug-25 05:00N 09°14' W 156°18'0 0.1 29.5
2015-Aug-25 03:00N 09°14' W 156°18'1 0.9 29.6
2015-Aug-25 02:00N 09°15' W 156°18'1 0.5 29.7
2015-Aug-25 01:00N 09°15' W 156°17'3 0.2 29.7
2015-Aug-24 14:00N 09°16' W 156°15'1 0.4 29.4
2015-Aug-24 12:00N 09°16' W 156°16'1 0.1 29.3
2015-Aug-24 04:00N 09°17' W 156°16'6 0.7 29.7
2015-Aug-23 19:00N 09°11' W 156°17'0 0.2 29.0
2015-Aug-23 17:00N 09°11' W 156°16'1 0.5 29.0
2015-Aug-23 15:00N 09°10' W 156°17'0 0.0 -0.0
2015-Aug-23 14:00N 09°10' W 156°17'4 0.7 29.0
2015-Aug-23 08:00N 09°07' W 156°19'2 0.8 29.5
2015-Aug-23 06:00N 09°05' W 156°19'1 0.2 29.5
2015-Aug-23 01:00N 09°04' W 156°19'5 0.6 29.8
2015-Aug-22 16:00N 08°60' W 156°22'0 0.1 29.4
2015-Aug-22 15:00N 08°60' W 156°22'6 0.6 29.5
2015-Aug-22 05:00N 08°55' W 156°26'1 1.1 29.7
2015-Aug-22 04:00N 08°54' W 156°27'2 2.1 29.9
2015-Aug-22 03:00N 08°52' W 156°28'1 0.3 30.1
2015-Aug-22 00:00N 08°51' W 156°28'1 1.0 30.3
2015-Aug-21 23:00N 08°50' W 156°28'1 0.2 30.3
2015-Aug-21 20:00N 08°50' W 156°28'0 0.4 29.8
2015-Aug-21 19:00N 08°50' W 156°28'0 0.0 29.5
2015-Aug-21 18:00N 08°50' W 156°28'1 0.5 29.3
2015-Aug-21 16:00N 08°49' W 156°27'0 0.0 29.3
2015-Aug-21 15:00N 08°49' W 156°27'1 0.5 29.4
2015-Aug-21 14:00N 08°49' W 156°28'1 0.2 29.4
2015-Aug-21 09:00N 08°50' W 156°27'0 0.4 29.4
2015-Aug-21 08:00N 08°50' W 156°27'1 0.3 29.4
2015-Aug-21 04:00N 08°50' W 156°28'3 0.7 29.5
2015-Aug-21 00:00N 08°51' W 156°31'0 0.0 29.6
2015-Aug-20 23:00N 08°51' W 156°31'2 0.8 29.7
2015-Aug-20 21:00N 08°52' W 156°32'2 0.5 29.5
2015-Aug-20 17:00N 08°52' W 156°34'19 0.8 29.3
2015-Aug-19 19:00N 08°49' W 156°53'   29.3

Dump ship's entire track history